Schneifelwetter: Wetterstation Hallschlag, 537 m . NN
Wetterdaten: Mittwoch, 08.06.2011
Datum Zeit Temp. A. Feuchte A. Luftdruck Wind Richtung Richtung Sonnenschein Helligkeit T Regen Taupunkt Windchill
08.06.2011 00:01 13,0 C 90 % 1004 hPa 0,3 km/h (0 Bft) W 270 0 min 0 lux 15,00 min 11,4 C 13,0 C
08.06.2011 00:16 12,9 C 90 % 1004 hPa 0,0 km/h (0 Bft) W 270 0 min 0 lux 15,00 min 11,3 C 12,9 C
08.06.2011 00:31 12,9 C 90 % 1004 hPa 0,0 km/h (0 Bft) W 270 0 min 0 lux 15,00 min 11,3 C 12,9 C
08.06.2011 00:46 12,8 C 90 % 1003 hPa 0,0 km/h (0 Bft) W 270 0 min 0 lux 0,00 min 11,2 C 12,8 C
08.06.2011 01:01 12,8 C 90 % 1003 hPa 0,0 km/h (0 Bft) W 270 0 min 0 lux 0,00 min 11,2 C 12,8 C
08.06.2011 01:16 12,8 C 90 % 1003 hPa 0,0 km/h (0 Bft) W 270 0 min 0 lux 15,00 min 11,2 C 12,8 C
08.06.2011 01:31 12,8 C 90 % 1003 hPa 8,3 km/h (2 Bft) W 270 0 min 0 lux 0,00 min 11,2 C 11,6 C
08.06.2011 01:46 12,8 C 91 % 1003 hPa 2,7 km/h (1 Bft) W 270 0 min 0 lux 0,00 min 11,4 C 12,8 C
08.06.2011 02:01 12,8 C 91 % 1003 hPa 7,8 km/h (2 Bft) W 270 0 min 0 lux 0,00 min 11,4 C 11,9 C
08.06.2011 02:16 12,8 C 91 % 1003 hPa 7,4 km/h (2 Bft) W 270 0 min 0 lux 0,00 min 11,4 C 12,2 C
08.06.2011 02:31 12,8 C 91 % 1003 hPa 10,1 km/h (2 Bft) W22.5 260 0 min 0 lux 0,00 min 11,4 C 10,6 C
08.06.2011 02:46 12,8 C 92 % 1003 hPa 15,2 km/h (3 Bft) W22.5 265 0 min 0 lux 0,00 min 11,5 C 8,5 C
08.06.2011 03:01 12,8 C 92 % 1003 hPa 12,7 km/h (3 Bft) W-SW22.5 255 0 min 0 lux 0,00 min 11,5 C 9,4 C
08.06.2011 03:16 12,8 C 92 % 1003 hPa 12,9 km/h (3 Bft) W-SW22.5 255 0 min 0 lux 0,00 min 11,5 C 9,4 C
08.06.2011 03:31 12,8 C 92 % 1003 hPa 14,3 km/h (3 Bft) W-SW22.5 250 0 min 0 lux 0,00 min 11,5 C 8,8 C
08.06.2011 03:46 12,9 C 93 % 1003 hPa 12,0 km/h (2 Bft) W-SW 255 0 min 0 lux 0,00 min 11,8 C 9,9 C
08.06.2011 04:01 12,9 C 94 % 1003 hPa 25,5 km/h (4 Bft) W-NW45 285 0 min 0 lux 0,00 min 12,0 C 5,6 C
08.06.2011 04:16 12,0 C 91 % 1004 hPa 23,7 km/h (4 Bft) W22.5 270 0 min 0 lux 0,00 min 10,6 C 4,9 C
08.06.2011 04:31 10,9 C 91 % 1004 hPa 23,5 km/h (4 Bft) W22.5 280 0 min 0 lux 0,00 min 9,5 C 3,4 C
08.06.2011 04:46 10,2 C 92 % 1004 hPa 21,0 km/h (4 Bft) W22.5 270 0 min 0 lux 0,00 min 9,0 C 3,2 C
08.06.2011 05:01 9,6 C 92 % 1004 hPa 21,3 km/h (4 Bft) W45 275 0 min 0 lux 0,00 min 8,4 C 2,4 C
08.06.2011 05:15 9,3 C 92 % 1004 hPa 15,0 km/h (3 Bft) W-NW45 285 0 min 0 lux 0,00 min 8,1 C 4,3 C
08.06.2011 05:30 9,0 C 92 % 1005 hPa 23,8 km/h (4 Bft) W45 270 0 min 61 lux 0,00 min 7,8 C 0,8 C
08.06.2011 05:45 8,7 C 92 % 1004 hPa 17,1 km/h (3 Bft) W67.5 275 0 min 157 lux 0,00 min 7,5 C 2,7 C
08.06.2011 06:00 8,6 C 93 % 1005 hPa 16,4 km/h (3 Bft) W45 275 0 min 307 lux 0,00 min 7,5 C 2,8 C
08.06.2011 06:15 8,6 C 93 % 1005 hPa 14,1 km/h (3 Bft) W-NW22.5 290 0 min 600 lux 0,00 min 7,5 C 3,8 C
08.06.2011 06:31 8,6 C 92 % 1005 hPa 18,2 km/h (3 Bft) W-NW45 285 0 min 1,25 klux 0,00 min 7,4 C 2,1 C
08.06.2011 06:46 8,6 C 92 % 1005 hPa 11,7 km/h (2 Bft) W-NW67.5 295 0 min 2,42 klux 0,00 min 7,4 C 5,1 C
08.06.2011 07:01 8,7 C 92 % 1005 hPa 18,7 km/h (3 Bft) W-NW45 290 0 min 2,67 klux 0,00 min 7,5 C 2,1 C
08.06.2011 07:16 8,7 C 91 % 1005 hPa 14,6 km/h (3 Bft) W45 270 0 min 2,41 klux 0,00 min 7,3 C 3,7 C
08.06.2011 07:31 8,4 C 89 % 1005 hPa 23,5 km/h (4 Bft) W22.5 275 0 min 2,55 klux 15,00 min 6,7 C 0,1 C
08.06.2011 07:46 8,3 C 89 % 1005 hPa 14,0 km/h (3 Bft) W22.5 260 0 min 3,13 klux 0,00 min 6,6 C 3,5 C
08.06.2011 08:01 8,4 C 89 % 1005 hPa 12,9 km/h (3 Bft) W 270 0 min 4,63 klux 0,00 min 6,7 C 4,2 C
08.06.2011 08:16 8,6 C 88 % 1005 hPa 12,1 km/h (2 Bft) W22.5 270 0 min 8,28 klux 0,00 min 6,7 C 4,8 C
08.06.2011 08:31 8,9 C 87 % 1005 hPa 11,9 km/h (2 Bft) W 260 0 min 8,34 klux 0,00 min 6,9 C 5,3 C
08.06.2011 08:46 9,2 C 86 % 1005 hPa 12,1 km/h (2 Bft) W22.5 265 0 min 15,0 klux 0,00 min 7,0 C 5,5 C
08.06.2011 09:00 9,6 C 86 % 1005 hPa 11,8 km/h (2 Bft) W22.5 260 0 min 12,6 klux 0,00 min 7,4 C 6,2 C
08.06.2011 09:16 9,8 C 86 % 1005 hPa 18,3 km/h (3 Bft) W22.5 265 0 min 15,1 klux 0,00 min 7,6 C 3,6 C
08.06.2011 09:31 10,1 C 85 % 1006 hPa 19,1 km/h (3 Bft) W45 275 0 min 15,5 klux 0,00 min 7,7 C 3,7 C
08.06.2011 09:46 10,3 C 84 % 1006 hPa 16,6 km/h (3 Bft) W22.5 270 0 min 22,0 klux 0,00 min 7,7 C 4,9 C
08.06.2011 10:01 10,9 C 83 % 1006 hPa 15,5 km/h (3 Bft) W22.5 265 0 min 32,5 klux 0,00 min 8,1 C 6,0 C
08.06.2011 10:16 11,6 C 81 % 1006 hPa 13,8 km/h (3 Bft) W 265 0 min 31,2 klux 0,00 min 8,5 C 7,6 C
08.06.2011 10:31 12,0 C 79 % 1006 hPa 25,0 km/h (4 Bft) W67.5 270 0 min 28,2 klux 0,00 min 8,5 C 4,5 C
08.06.2011 10:45 12,6 C 78 % 1006 hPa 16,0 km/h (3 Bft) W22.5 270 0 min 60,3 klux 0,00 min 8,9 C 7,9 C
08.06.2011 11:01 14,0 C 67 % 1006 hPa 24,4 km/h (4 Bft) W22.5 270 16 min 89,6 klux 0,00 min 8,0 C 7,4 C
08.06.2011 11:16 15,0 C 69 % 1006 hPa 24,1 km/h (4 Bft) W45 275 15 min 89,5 klux 0,00 min 9,4 C 8,8 C
08.06.2011 11:31 15,6 C 66 % 1006 hPa 25,8 km/h (4 Bft) W45 270 15 min 96,0 klux 0,00 min 9,3 C 9,3 C
08.06.2011 11:46 15,7 C 65 % 1006 hPa 22,1 km/h (4 Bft) W45 265 15 min 90,6 klux 0,00 min 9,1 C 10,2 C
08.06.2011 12:01 16,5 C 67 % 1006 hPa 26,7 km/h (4 Bft) W22.5 260 15 min 91,1 klux 0,00 min 10,4 C 10,3 C
08.06.2011 12:16 16,6 C 64 % 1007 hPa 28,6 km/h (4 Bft) W45 260 15 min 90,1 klux 0,00 min 9,8 C 10,2 C
08.06.2011 12:31 16,1 C 63 % 1007 hPa 38,9 km/h (6 Bft) W45 260 15 min 89,2 klux 0,00 min 9,1 C 8,1 C
08.06.2011 12:46 16,0 C 62 % 1007 hPa 36,4 km/h (5 Bft) W45 265 15 min 96,7 klux 0,00 min 8,7 C 8,2 C
08.06.2011 13:01 16,0 C 63 % 1007 hPa 34,8 km/h (5 Bft) W45 265 15 min 103 klux 0,00 min 9,0 C 8,4 C
08.06.2011 13:16 15,6 C 61 % 1007 hPa 34,3 km/h (5 Bft) W22.5 270 15 min 84,2 klux 0,00 min 8,1 C 7,9 C
08.06.2011 13:31 15,9 C 62 % 1007 hPa 29,1 km/h (5 Bft) W22.5 265 15 min 99,0 klux 0,00 min 8,6 C 9,1 C
08.06.2011 13:46 15,6 C 63 % 1007 hPa 33,0 km/h (5 Bft) W45 270 15 min 113 klux 0,00 min 8,6 C 8,1 C
08.06.2011 14:01 16,1 C 62 % 1007 hPa 41,1 km/h (6 Bft) W45 265 15 min 117 klux 0,00 min 8,8 C 7,8 C
08.06.2011 14:16 15,9 C 60 % 1007 hPa 34,9 km/h (5 Bft) W45 275 15 min 68,6 klux 0,00 min 8,1 C 8,2 C
08.06.2011 14:31 16,1 C 61 % 1008 hPa 30,5 km/h (5 Bft) W45 265 15 min 110 klux 0,00 min 8,6 C 9,2 C
08.06.2011 14:46 15,5 C 60 % 1008 hPa 29,6 km/h (5 Bft) W45 265 0 min 49,1 klux 0,00 min 7,8 C 8,5 C
08.06.2011 15:01 15,1 C 61 % 1008 hPa 29,4 km/h (5 Bft) W45 265 0 min 46,8 klux 0,00 min 7,6 C 7,9 C
08.06.2011 15:16 15,4 C 63 % 1008 hPa 26,8 km/h (4 Bft) W45 275 0 min 54,5 klux 15,00 min 8,4 C 8,8 C
08.06.2011 15:30 15,9 C 60 % 1008 hPa 25,0 km/h (4 Bft) W45 270 14 min 74,1 klux 0,00 min 8,1 C 9,8 C
08.06.2011 15:46 15,8 C 61 % 1007 hPa 31,3 km/h (5 Bft) W45 265 0 min 60,4 klux 0,00 min 8,3 C 8,6 C
08.06.2011 16:01 15,5 C 60 % 1007 hPa 24,2 km/h (4 Bft) W22.5 265 0 min 49,0 klux 0,00 min 7,8 C 9,4 C
08.06.2011 16:16 15,4 C 60 % 1007 hPa 31,1 km/h (5 Bft) W67.5 270 15 min 83,9 klux 0,00 min 7,7 C 8,1 C
08.06.2011 16:31 15,7 C 60 % 1008 hPa 29,1 km/h (5 Bft) W45 270 15 min 66,2 klux 0,00 min 8,0 C 8,8 C
08.06.2011 16:46 15,6 C 60 % 1008 hPa 31,8 km/h (5 Bft) W22.5 270 0 min 43,0 klux 0,00 min 7,9 C 8,3 C
08.06.2011 17:01 15,6 C 59 % 1008 hPa 19,3 km/h (3 Bft) W45 265 0 min 33,6 klux 0,00 min 7,6 C 10,7 C
08.06.2011 17:16 16,0 C 61 % 1008 hPa 24,3 km/h (4 Bft) W45 270 15 min 82,0 klux 0,00 min 8,5 C 10,1 C
08.06.2011 17:31 15,6 C 57 % 1008 hPa 32,5 km/h (5 Bft) W45 260 0 min 36,9 klux 0,00 min 7,1 C 8,1 C
08.06.2011 17:46 14,5 C 58 % 1008 hPa 27,1 km/h (4 Bft) W45 270 0 min 16,4 klux 0,00 min 6,3 C 7,5 C
08.06.2011 18:01 14,2 C 60 % 1008 hPa 27,7 km/h (4 Bft) W22.5 270 0 min 23,4 klux 0,00 min 6,5 C 7,0 C
08.06.2011 18:16 14,2 C 60 % 1008 hPa 26,0 km/h (4 Bft) W45 270 0 min 27,6 klux 0,00 min 6,5 C 7,3 C
08.06.2011 18:31 14,2 C 61 % 1008 hPa 29,2 km/h (5 Bft) W22.5 265 0 min 20,6 klux 0,00 min 6,8 C 6,7 C
08.06.2011 18:45 14,8 C 59 % 1008 hPa 24,6 km/h (4 Bft) W45 270 0 min 49,6 klux 0,00 min 6,9 C 8,4 C
08.06.2011 19:01 14,6 C 60 % 1008 hPa 18,4 km/h (3 Bft) W45 260 0 min 20,4 klux 0,00 min 6,9 C 9,7 C
08.06.2011 19:16 14,8 C 61 % 1008 hPa 18,2 km/h (3 Bft) W-SW22.5 250 0 min 46,4 klux 0,00 min 7,4 C 10,0 C
08.06.2011 19:31 14,3 C 59 % 1009 hPa 22,2 km/h (4 Bft) W22.5 270 0 min 13,1 klux 0,00 min 6,4 C 8,3 C
08.06.2011 19:46 13,5 C 61 % 1009 hPa 23,0 km/h (4 Bft) W45 265 0 min 11,4 klux 0,00 min 6,1 C 7,0 C
08.06.2011 20:01 13,2 C 62 % 1009 hPa 17,9 km/h (3 Bft) W22.5 270 0 min 11,3 klux 0,00 min 6,1 C 8,0 C
08.06.2011 20:16 13,1 C 62 % 1009 hPa 27,8 km/h (4 Bft) W45 265 0 min 13,6 klux 0,00 min 6,0 C 5,4 C
08.06.2011 20:31 12,7 C 64 % 1009 hPa 18,1 km/h (3 Bft) W22.5 260 0 min 6,77 klux 0,00 min 6,1 C 7,3 C
08.06.2011 20:46 12,6 C 66 % 1009 hPa 14,1 km/h (3 Bft) W-SW 255 0 min 11,6 klux 0,00 min 6,4 C 8,6 C
08.06.2011 21:01 12,6 C 66 % 1009 hPa 16,8 km/h (3 Bft) W-SW 250 0 min 7,63 klux 0,00 min 6,4 C 7,6 C
08.06.2011 21:16 12,2 C 66 % 1010 hPa 25,0 km/h (4 Bft) W22.5 260 0 min 5,36 klux 0,00 min 6,0 C 4,8 C
08.06.2011 21:31 11,7 C 67 % 1010 hPa 11,4 km/h (2 Bft) W22.5 260 0 min 2,04 klux 0,00 min 5,8 C 8,8 C
08.06.2011 21:46 11,0 C 67 % 1010 hPa 0,6 km/h (0 Bft) W-SW 245 0 min 1,08 klux 0,00 min 5,1 C 11,0 C
08.06.2011 22:01 10,0 C 69 % 1010 hPa 0,0 km/h (0 Bft) W-SW 245 0 min 356 lux 0,00 min 4,6 C 10,0 C
08.06.2011 22:16 9,1 C 72 % 1010 hPa 2,3 km/h (1 Bft) W-SW 245 0 min 96 lux 0,00 min 4,3 C 9,1 C
08.06.2011 22:31 8,4 C 75 % 1010 hPa 3,2 km/h (1 Bft) W-SW 250 0 min 15 lux 0,00 min 4,2 C 8,4 C
08.06.2011 22:46 7,9 C 76 % 1011 hPa 0,0 km/h (0 Bft) W-SW 245 0 min 0 lux 0,00 min 3,9 C 7,9 C
08.06.2011 23:01 7,7 C 76 % 1011 hPa 0,0 km/h (0 Bft) W-SW 245 0 min 0 lux 0,00 min 3,7 C 7,7 C
08.06.2011 23:16 7,5 C 77 % 1011 hPa 0,4 km/h (0 Bft) W-SW 245 0 min 0 lux 0,00 min 3,7 C 7,5 C
08.06.2011 23:30 7,3 C 78 % 1011 hPa 6,5 km/h (2 Bft) W-SW 245 0 min 0 lux 0,00 min 3,7 C 7,2 C
08.06.2011 23:46 7,2 C 80 % 1011 hPa 7,2 km/h (2 Bft) W-SW 245 0 min 0 lux 0,00 min 4,0 C 6,5 C
_ Min-Zeit 23:46 17:31 00:46 00:16 - - - - - 23:30 07:31
Minimum _ 7,2 C 57 % 1003 hPa 0,0 km/h (0 Bft) - - - - - 3,7 C 0,1 C
_ Max-Zeit 12:16 04:01 22:46 14:01 - - 11:01 14:01 00:01 04:01 00:01
Maximum _ 16,6 C 94 % 1011 hPa 41,1 km/h
W (6 Bft)
- - 16 min 117 klux 15,00 min 12,0 C 13,0 C
Durchschnitt _ 12,5 C 76 % 1007 hPa 18,3 km/h (3 Bft) W - #4:45 h 27,8 klux #1:30 h 8,0 C 7,6 C